sensor_id;sensor_type;location;lat;lon;timestamp;P1;durP1;ratioP1;P2;durP2;ratioP2
15055;SDS011;7626;42.674;23.284;2022-09-09T00:01:32;8.88;;;8.18;;
15055;SDS011;7626;42.674;23.284;2022-09-09T00:04:04;10.30;;;9.38;;
15055;SDS011;7626;42.674;23.284;2022-09-09T00:06:32;9.98;;;9.10;;
15055;SDS011;7626;42.674;23.284;2022-09-09T00:09:02;9.90;;;8.98;;
15055;SDS011;7626;42.674;23.284;2022-09-09T00:11:32;10.07;;;9.07;;
15055;SDS011;7626;42.674;23.284;2022-09-09T00:14:03;9.75;;;8.95;;
15055;SDS011;7626;42.674;23.284;2022-09-09T00:16:32;9.68;;;8.70;;
15055;SDS011;7626;42.674;23.284;2022-09-09T00:19:01;9.50;;;8.63;;
15055;SDS011;7626;42.674;23.284;2022-09-09T00:21:31;9.87;;;9.00;;
15055;SDS011;7626;42.674;23.284;2022-09-09T00:23:58;9.50;;;8.73;;
15055;SDS011;7626;42.674;23.284;2022-09-09T00:26:30;9.50;;;8.70;;
15055;SDS011;7626;42.674;23.284;2022-09-09T00:29:00;10.10;;;8.90;;
15055;SDS011;7626;42.674;23.284;2022-09-09T00:31:30;10.77;;;8.77;;
15055;SDS011;7626;42.674;23.284;2022-09-09T00:33:57;10.20;;;9.30;;
15055;SDS011;7626;42.674;23.284;2022-09-09T00:36:26;10.20;;;9.23;;
15055;SDS011;7626;42.674;23.284;2022-09-09T00:38:55;10.27;;;9.30;;
15055;SDS011;7626;42.674;23.284;2022-09-09T00:41:25;10.47;;;9.57;;
15055;SDS011;7626;42.674;23.284;2022-09-09T00:43:57;10.30;;;9.40;;
15055;SDS011;7626;42.674;23.284;2022-09-09T00:46:40;9.60;;;8.70;;
15055;SDS011;7626;42.674;23.284;2022-09-09T00:49:12;10.03;;;9.13;;
15055;SDS011;7626;42.674;23.284;2022-09-09T00:51:43;9.97;;;8.97;;
15055;SDS011;7626;42.674;23.284;2022-09-09T00:54:18;10.70;;;9.70;;
15055;SDS011;7626;42.674;23.284;2022-09-09T00:56:47;10.10;;;9.10;;
15055;SDS011;7626;42.674;23.284;2022-09-09T00:59:20;10.80;;;9.70;;
15055;SDS011;7626;42.674;23.284;2022-09-09T01:01:48;10.97;;;9.97;;
15055;SDS011;7626;42.674;23.284;2022-09-09T01:04:16;10.80;;;9.80;;
15055;SDS011;7626;42.674;23.284;2022-09-09T01:06:43;10.20;;;9.30;;
15055;SDS011;7626;42.674;23.284;2022-09-09T01:09:16;10.30;;;9.23;;
15055;SDS011;7626;42.674;23.284;2022-09-09T01:11:49;10.23;;;9.23;;
15055;SDS011;7626;42.674;23.284;2022-09-09T01:14:20;10.27;;;9.37;;
15055;SDS011;7626;42.674;23.284;2022-09-09T01:16:50;10.33;;;9.17;;
15055;SDS011;7626;42.674;23.284;2022-09-09T01:22:06;10.10;;;9.20;;
15055;SDS011;7626;42.674;23.284;2022-09-09T01:24:36;9.73;;;8.83;;
15055;SDS011;7626;42.674;23.284;2022-09-09T01:27:06;10.47;;;9.57;;
15055;SDS011;7626;42.674;23.284;2022-09-09T01:29:34;10.37;;;9.27;;
15055;SDS011;7626;42.674;23.284;2022-09-09T01:32:01;10.00;;;9.07;;
15055;SDS011;7626;42.674;23.284;2022-09-09T01:34:28;10.00;;;9.10;;
15055;SDS011;7626;42.674;23.284;2022-09-09T01:36:57;10.37;;;9.27;;
15055;SDS011;7626;42.674;23.284;2022-09-09T01:39:25;10.53;;;9.53;;
15055;SDS011;7626;42.674;23.284;2022-09-09T01:41:52;10.10;;;9.23;;
15055;SDS011;7626;42.674;23.284;2022-09-09T01:44:20;10.40;;;9.50;;
15055;SDS011;7626;42.674;23.284;2022-09-09T01:46:47;9.27;;;8.57;;
15055;SDS011;7626;42.674;23.284;2022-09-09T01:49:14;9.10;;;8.30;;
15055;SDS011;7626;42.674;23.284;2022-09-09T01:51:41;9.03;;;8.33;;
15055;SDS011;7626;42.674;23.284;2022-09-09T01:54:08;9.60;;;8.80;;
15055;SDS011;7626;42.674;23.284;2022-09-09T01:56:40;9.43;;;8.53;;
15055;SDS011;7626;42.674;23.284;2022-09-09T01:59:11;9.47;;;8.57;;
15055;SDS011;7626;42.674;23.284;2022-09-09T02:01:56;9.03;;;8.23;;
15055;SDS011;7626;42.674;23.284;2022-09-09T02:04:28;8.93;;;8.10;;
15055;SDS011;7626;42.674;23.284;2022-09-09T02:06:58;9.83;;;8.90;;
15055;SDS011;7626;42.674;23.284;2022-09-09T02:09:26;8.80;;;8.10;;
15055;SDS011;7626;42.674;23.284;2022-09-09T02:11:55;9.47;;;8.67;;
15055;SDS011;7626;42.674;23.284;2022-09-09T02:14:25;9.90;;;9.00;;
15055;SDS011;7626;42.674;23.284;2022-09-09T02:16:56;10.03;;;9.10;;
15055;SDS011;7626;42.674;23.284;2022-09-09T02:19:25;9.60;;;8.80;;
15055;SDS011;7626;42.674;23.284;2022-09-09T02:21:52;10.03;;;9.03;;
15055;SDS011;7626;42.674;23.284;2022-09-09T02:24:19;9.83;;;8.97;;
15055;SDS011;7626;42.674;23.284;2022-09-09T02:26:47;9.97;;;9.17;;
15055;SDS011;7626;42.674;23.284;2022-09-09T02:29:14;10.27;;;9.27;;
15055;SDS011;7626;42.674;23.284;2022-09-09T02:31:42;10.40;;;9.60;;
15055;SDS011;7626;42.674;23.284;2022-09-09T02:34:11;9.70;;;8.70;;
15055;SDS011;7626;42.674;23.284;2022-09-09T02:36:40;10.20;;;9.20;;
15055;SDS011;7626;42.674;23.284;2022-09-09T02:39:08;10.30;;;9.30;;
15055;SDS011;7626;42.674;23.284;2022-09-09T02:41:36;11.17;;;10.07;;
15055;SDS011;7626;42.674;23.284;2022-09-09T02:44:05;11.00;;;10.00;;
15055;SDS011;7626;42.674;23.284;2022-09-09T02:46:45;10.43;;;9.53;;
15055;SDS011;7626;42.674;23.284;2022-09-09T02:49:18;10.83;;;10.00;;
15055;SDS011;7626;42.674;23.284;2022-09-09T02:51:48;11.13;;;10.13;;
15055;SDS011;7626;42.674;23.284;2022-09-09T02:54:17;10.53;;;9.63;;
15055;SDS011;7626;42.674;23.284;2022-09-09T02:56:47;9.97;;;9.07;;
15055;SDS011;7626;42.674;23.284;2022-09-09T02:59:16;10.57;;;9.57;;
15055;SDS011;7626;42.674;23.284;2022-09-09T03:01:43;10.17;;;9.27;;
15055;SDS011;7626;42.674;23.284;2022-09-09T03:04:10;10.30;;;9.30;;
15055;SDS011;7626;42.674;23.284;2022-09-09T03:06:38;10.07;;;9.17;;
15055;SDS011;7626;42.674;23.284;2022-09-09T03:09:04;10.27;;;9.27;;
15055;SDS011;7626;42.674;23.284;2022-09-09T03:11:31;10.77;;;9.33;;
15055;SDS011;7626;42.674;23.284;2022-09-09T03:13:57;10.60;;;9.70;;
15055;SDS011;7626;42.674;23.284;2022-09-09T03:16:24;10.00;;;9.00;;
15055;SDS011;7626;42.674;23.284;2022-09-09T03:18:50;10.90;;;9.10;;
15055;SDS011;7626;42.674;23.284;2022-09-09T03:21:17;10.60;;;9.60;;
15055;SDS011;7626;42.674;23.284;2022-09-09T03:23:45;10.10;;;9.23;;
15055;SDS011;7626;42.674;23.284;2022-09-09T03:26:11;9.87;;;9.00;;
15055;SDS011;7626;42.674;23.284;2022-09-09T03:28:40;10.93;;;9.93;;
15055;SDS011;7626;42.674;23.284;2022-09-09T03:31:06;10.80;;;9.87;;
15055;SDS011;7626;42.674;23.284;2022-09-09T03:33:35;10.63;;;9.67;;
15055;SDS011;7626;42.674;23.284;2022-09-09T03:36:02;10.53;;;9.50;;
15055;SDS011;7626;42.674;23.284;2022-09-09T03:38:29;11.53;;;9.73;;
15055;SDS011;7626;42.674;23.284;2022-09-09T03:40:57;11.03;;;9.93;;
15055;SDS011;7626;42.674;23.284;2022-09-09T03:43:24;11.20;;;10.10;;
15055;SDS011;7626;42.674;23.284;2022-09-09T03:45:51;10.43;;;9.50;;
15055;SDS011;7626;42.674;23.284;2022-09-09T03:48:18;11.10;;;10.10;;
15055;SDS011;7626;42.674;23.284;2022-09-09T03:50:45;11.33;;;10.33;;
15055;SDS011;7626;42.674;23.284;2022-09-09T03:53:11;11.03;;;10.03;;
15055;SDS011;7626;42.674;23.284;2022-09-09T03:55:38;10.90;;;9.90;;
15055;SDS011;7626;42.674;23.284;2022-09-09T03:58:08;11.63;;;10.43;;
15055;SDS011;7626;42.674;23.284;2022-09-09T04:00:35;10.90;;;9.80;;
15055;SDS011;7626;42.674;23.284;2022-09-09T04:03:08;10.50;;;9.60;;
15055;SDS011;7626;42.674;23.284;2022-09-09T04:05:35;11.17;;;10.13;;
15055;SDS011;7626;42.674;23.284;2022-09-09T04:08:04;10.80;;;9.70;;
15055;SDS011;7626;42.674;23.284;2022-09-09T04:10:31;11.17;;;10.07;;
15055;SDS011;7626;42.674;23.284;2022-09-09T04:12:57;11.23;;;10.20;;
15055;SDS011;7626;42.674;23.284;2022-09-09T04:15:26;11.73;;;10.57;;
15055;SDS011;7626;42.674;23.284;2022-09-09T04:24:14;12.03;;;10.93;;
15055;SDS011;7626;42.674;23.284;2022-09-09T04:27:19;11.13;;;10.13;;
15055;SDS011;7626;42.674;23.284;2022-09-09T04:30:15;11.73;;;10.67;;
15055;SDS011;7626;42.674;23.284;2022-09-09T04:47:52;13.40;;;10.87;;
15055;SDS011;7626;42.674;23.284;2022-09-09T04:50:19;12.53;;;11.43;;
15055;SDS011;7626;42.674;23.284;2022-09-09T04:52:45;12.97;;;11.67;;
15055;SDS011;7626;42.674;23.284;2022-09-09T04:55:12;16.10;;;12.03;;
15055;SDS011;7626;42.674;23.284;2022-09-09T04:57:39;15.50;;;13.97;;
15055;SDS011;7626;42.674;23.284;2022-09-09T05:00:05;13.60;;;12.40;;
15055;SDS011;7626;42.674;23.284;2022-09-09T05:02:32;14.77;;;13.27;;
15055;SDS011;7626;42.674;23.284;2022-09-09T05:05:00;15.43;;;12.90;;
15055;SDS011;7626;42.674;23.284;2022-09-09T05:07:26;15.10;;;12.43;;
15055;SDS011;7626;42.674;23.284;2022-09-09T05:09:54;23.13;;;20.73;;
15055;SDS011;7626;42.674;23.284;2022-09-09T05:12:21;19.80;;;17.80;;
15055;SDS011;7626;42.674;23.284;2022-09-09T05:14:49;18.73;;;16.83;;
15055;SDS011;7626;42.674;23.284;2022-09-09T05:17:20;16.60;;;15.07;;
15055;SDS011;7626;42.674;23.284;2022-09-09T05:19:46;15.70;;;14.10;;
15055;SDS011;7626;42.674;23.284;2022-09-09T05:22:19;16.77;;;13.73;;
15055;SDS011;7626;42.674;23.284;2022-09-09T05:24:46;23.17;;;19.60;;
15055;SDS011;7626;42.674;23.284;2022-09-09T05:27:14;46.27;;;18.00;;
15055;SDS011;7626;42.674;23.284;2022-09-09T05:29:41;24.40;;;15.33;;
15055;SDS011;7626;42.674;23.284;2022-09-09T05:32:09;16.03;;;14.33;;
15055;SDS011;7626;42.674;23.284;2022-09-09T05:34:36;16.03;;;14.30;;
15055;SDS011;7626;42.674;23.284;2022-09-09T05:37:04;15.83;;;14.23;;
15055;SDS011;7626;42.674;23.284;2022-09-09T05:39:31;24.67;;;15.60;;
15055;SDS011;7626;42.674;23.284;2022-09-09T05:41:59;16.00;;;14.33;;
15055;SDS011;7626;42.674;23.284;2022-09-09T05:44:26;15.73;;;14.00;;
15055;SDS011;7626;42.674;23.284;2022-09-09T05:46:54;16.77;;;15.17;;
15055;SDS011;7626;42.674;23.284;2022-09-09T05:49:21;14.93;;;13.47;;
15055;SDS011;7626;42.674;23.284;2022-09-09T05:51:47;16.23;;;13.40;;
15055;SDS011;7626;42.674;23.284;2022-09-09T05:54:18;16.67;;;15.03;;
15055;SDS011;7626;42.674;23.284;2022-09-09T05:56:48;15.70;;;14.03;;
15055;SDS011;7626;42.674;23.284;2022-09-09T05:59:17;16.77;;;13.93;;
15055;SDS011;7626;42.674;23.284;2022-09-09T06:01:44;15.13;;;13.80;;
15055;SDS011;7626;42.674;23.284;2022-09-09T06:04:11;15.57;;;14.00;;
15055;SDS011;7626;42.674;23.284;2022-09-09T06:06:37;15.47;;;14.17;;
15055;SDS011;7626;42.674;23.284;2022-09-09T06:09:05;16.57;;;14.97;;
15055;SDS011;7626;42.674;23.284;2022-09-09T06:11:34;20.07;;;15.30;;
15055;SDS011;7626;42.674;23.284;2022-09-09T06:14:02;16.77;;;15.07;;
15055;SDS011;7626;42.674;23.284;2022-09-09T06:16:29;17.07;;;15.37;;
15055;SDS011;7626;42.674;23.284;2022-09-09T06:18:57;17.10;;;15.20;;
15055;SDS011;7626;42.674;23.284;2022-09-09T06:21:25;16.63;;;15.03;;
15055;SDS011;7626;42.674;23.284;2022-09-09T06:23:52;17.02;;;15.32;;
15055;SDS011;7626;42.674;23.284;2022-09-09T06:26:19;16.97;;;14.90;;
15055;SDS011;7626;42.674;23.284;2022-09-09T06:28:46;16.83;;;14.70;;
15055;SDS011;7626;42.674;23.284;2022-09-09T06:31:15;15.98;;;14.38;;
15055;SDS011;7626;42.674;23.284;2022-09-09T06:33:42;18.55;;;14.93;;
15055;SDS011;7626;42.674;23.284;2022-09-09T06:36:10;17.52;;;15.10;;
15055;SDS011;7626;42.674;23.284;2022-09-09T06:38:37;16.60;;;14.80;;
15055;SDS011;7626;42.674;23.284;2022-09-09T06:41:03;17.60;;;15.87;;
15055;SDS011;7626;42.674;23.284;2022-09-09T06:43:31;17.70;;;15.60;;
15055;SDS011;7626;42.674;23.284;2022-09-09T06:45:58;19.92;;;15.48;;
15055;SDS011;7626;42.674;23.284;2022-09-09T06:48:26;16.73;;;15.10;;
15055;SDS011;7626;42.674;23.284;2022-09-09T06:51:00;15.93;;;14.30;;
15055;SDS011;7626;42.674;23.284;2022-09-09T06:53:26;16.48;;;14.88;;
15055;SDS011;7626;42.674;23.284;2022-09-09T06:55:53;17.60;;;14.13;;
15055;SDS011;7626;42.674;23.284;2022-09-09T06:58:19;15.20;;;13.65;;
15055;SDS011;7626;42.674;23.284;2022-09-09T07:00:47;15.10;;;13.40;;
15055;SDS011;7626;42.674;23.284;2022-09-09T07:03:14;14.77;;;13.25;;
15055;SDS011;7626;42.674;23.284;2022-09-09T07:05:42;14.60;;;13.23;;
15055;SDS011;7626;42.674;23.284;2022-09-09T07:08:09;15.35;;;13.50;;
15055;SDS011;7626;42.674;23.284;2022-09-09T07:10:37;14.95;;;13.52;;
15055;SDS011;7626;42.674;23.284;2022-09-09T07:13:03;14.65;;;13.25;;
15055;SDS011;7626;42.674;23.284;2022-09-09T07:15:30;15.07;;;13.68;;
15055;SDS011;7626;42.674;23.284;2022-09-09T07:18:00;15.13;;;13.52;;
15055;SDS011;7626;42.674;23.284;2022-09-09T07:20:27;15.57;;;14.10;;
15055;SDS011;7626;42.674;23.284;2022-09-09T07:22:55;15.10;;;13.27;;
15055;SDS011;7626;42.674;23.284;2022-09-09T07:25:24;20.70;;;13.63;;
15055;SDS011;7626;42.674;23.284;2022-09-09T07:27:56;18.42;;;12.98;;
15055;SDS011;7626;42.674;23.284;2022-09-09T07:30:22;15.25;;;12.45;;
15055;SDS011;7626;42.674;23.284;2022-09-09T07:32:50;14.38;;;12.90;;
15055;SDS011;7626;42.674;23.284;2022-09-09T07:35:17;52.15;;;16.02;;
15055;SDS011;7626;42.674;23.284;2022-09-09T07:37:43;14.25;;;12.63;;
15055;SDS011;7626;42.674;23.284;2022-09-09T07:40:11;16.23;;;12.60;;
15055;SDS011;7626;42.674;23.284;2022-09-09T07:42:38;17.58;;;12.35;;
15055;SDS011;7626;42.674;23.284;2022-09-09T07:45:04;15.48;;;11.95;;
15055;SDS011;7626;42.674;23.284;2022-09-09T07:47:31;16.95;;;12.73;;
15055;SDS011;7626;42.674;23.284;2022-09-09T07:49:58;13.55;;;12.07;;
15055;SDS011;7626;42.674;23.284;2022-09-09T07:52:25;12.90;;;11.60;;
15055;SDS011;7626;42.674;23.284;2022-09-09T07:54:51;13.80;;;12.40;;
15055;SDS011;7626;42.674;23.284;2022-09-09T07:57:19;12.80;;;11.70;;
15055;SDS011;7626;42.674;23.284;2022-09-09T07:59:46;12.40;;;11.30;;
15055;SDS011;7626;42.674;23.284;2022-09-09T08:02:13;17.02;;;11.15;;
15055;SDS011;7626;42.674;23.284;2022-09-09T08:04:39;12.75;;;11.55;;
15055;SDS011;7626;42.674;23.284;2022-09-09T08:07:06;12.45;;;11.27;;
15055;SDS011;7626;42.674;23.284;2022-09-09T08:09:32;11.60;;;10.55;;
15055;SDS011;7626;42.674;23.284;2022-09-09T08:11:59;11.98;;;10.68;;
15055;SDS011;7626;42.674;23.284;2022-09-09T08:14:27;12.35;;;10.95;;
15055;SDS011;7626;42.674;23.284;2022-09-09T08:16:54;10.70;;;9.70;;
15055;SDS011;7626;42.674;23.284;2022-09-09T08:19:22;11.30;;;10.20;;
15055;SDS011;7626;42.674;23.284;2022-09-09T08:21:48;10.82;;;9.75;;
15055;SDS011;7626;42.674;23.284;2022-09-09T08:24:15;11.05;;;10.02;;
15055;SDS011;7626;42.674;23.284;2022-09-09T08:26:42;13.20;;;10.57;;
15055;SDS011;7626;42.674;23.284;2022-09-09T08:29:10;12.52;;;10.30;;
15055;SDS011;7626;42.674;23.284;2022-09-09T08:31:38;11.15;;;10.05;;
15055;SDS011;7626;42.674;23.284;2022-09-09T08:34:06;10.82;;;9.55;;
15055;SDS011;7626;42.674;23.284;2022-09-09T08:36:34;10.65;;;9.40;;
15055;SDS011;7626;42.674;23.284;2022-09-09T08:39:02;10.50;;;9.05;;
15055;SDS011;7626;42.674;23.284;2022-09-09T08:41:38;9.32;;;8.43;;
15055;SDS011;7626;42.674;23.284;2022-09-09T08:44:06;11.20;;;9.70;;
15055;SDS011;7626;42.674;23.284;2022-09-09T08:46:35;11.38;;;9.15;;
15055;SDS011;7626;42.674;23.284;2022-09-09T08:49:10;9.88;;;8.75;;
15055;SDS011;7626;42.674;23.284;2022-09-09T08:51:38;10.18;;;9.10;;
15055;SDS011;7626;42.674;23.284;2022-09-09T08:54:05;10.60;;;9.50;;
15055;SDS011;7626;42.674;23.284;2022-09-09T08:56:32;10.13;;;8.95;;
15055;SDS011;7626;42.674;23.284;2022-09-09T08:58:59;10.30;;;9.40;;
15055;SDS011;7626;42.674;23.284;2022-09-09T09:01:35;10.05;;;8.82;;
15055;SDS011;7626;42.674;23.284;2022-09-09T09:04:10;10.10;;;9.02;;
15055;SDS011;7626;42.674;23.284;2022-09-09T09:06:41;9.40;;;8.43;;
15055;SDS011;7626;42.674;23.284;2022-09-09T09:09:13;13.38;;;8.65;;
15055;SDS011;7626;42.674;23.284;2022-09-09T09:11:44;10.65;;;8.23;;
15055;SDS011;7626;42.674;23.284;2022-09-09T09:14:14;8.30;;;7.57;;
15055;SDS011;7626;42.674;23.284;2022-09-09T09:16:45;9.57;;;7.80;;
15055;SDS011;7626;42.674;23.284;2022-09-09T09:19:16;9.82;;;8.93;;
15055;SDS011;7626;42.674;23.284;2022-09-09T09:21:44;9.70;;;8.73;;
15055;SDS011;7626;42.674;23.284;2022-09-09T09:24:15;9.32;;;8.35;;
15055;SDS011;7626;42.674;23.284;2022-09-09T09:26:43;9.88;;;8.30;;
15055;SDS011;7626;42.674;23.284;2022-09-09T09:29:10;9.10;;;8.30;;
15055;SDS011;7626;42.674;23.284;2022-09-09T09:31:38;9.38;;;8.15;;
15055;SDS011;7626;42.674;23.284;2022-09-09T09:34:04;9.70;;;7.90;;
15055;SDS011;7626;42.674;23.284;2022-09-09T09:36:38;8.18;;;7.35;;
15055;SDS011;7626;42.674;23.284;2022-09-09T09:39:06;8.40;;;7.65;;
15055;SDS011;7626;42.674;23.284;2022-09-09T09:41:35;10.35;;;8.13;;
15055;SDS011;7626;42.674;23.284;2022-09-09T09:44:02;8.43;;;7.63;;
15055;SDS011;7626;42.674;23.284;2022-09-09T09:46:29;8.98;;;7.82;;
15055;SDS011;7626;42.674;23.284;2022-09-09T09:48:56;9.88;;;8.88;;
15055;SDS011;7626;42.674;23.284;2022-09-09T09:51:23;10.88;;;8.10;;
15055;SDS011;7626;42.674;23.284;2022-09-09T09:53:51;11.30;;;8.18;;
15055;SDS011;7626;42.674;23.284;2022-09-09T09:56:25;8.95;;;8.07;;
15055;SDS011;7626;42.674;23.284;2022-09-09T09:58:53;8.63;;;7.80;;
15055;SDS011;7626;42.674;23.284;2022-09-09T10:01:21;9.75;;;8.00;;
15055;SDS011;7626;42.674;23.284;2022-09-09T10:03:50;11.75;;;7.93;;
15055;SDS011;7626;42.674;23.284;2022-09-09T10:06:17;9.23;;;7.50;;
15055;SDS011;7626;42.674;23.284;2022-09-09T10:08:44;11.18;;;7.85;;
15055;SDS011;7626;42.674;23.284;2022-09-09T10:11:23;8.60;;;7.78;;
15055;SDS011;7626;42.674;23.284;2022-09-09T10:13:54;9.20;;;7.40;;
15055;SDS011;7626;42.674;23.284;2022-09-09T10:16:30;8.13;;;7.43;;
15055;SDS011;7626;42.674;23.284;2022-09-09T10:19:00;10.70;;;7.35;;
15055;SDS011;7626;42.674;23.284;2022-09-09T10:21:34;9.45;;;8.45;;
15055;SDS011;7626;42.674;23.284;2022-09-09T10:24:13;9.43;;;7.90;;
15055;SDS011;7626;42.674;23.284;2022-09-09T10:26:50;10.77;;;8.15;;
15055;SDS011;7626;42.674;23.284;2022-09-09T10:29:22;13.55;;;8.65;;
15055;SDS011;7626;42.674;23.284;2022-09-09T10:31:52;11.32;;;8.73;;
15055;SDS011;7626;42.674;23.284;2022-09-09T10:34:24;9.15;;;8.25;;
15055;SDS011;7626;42.674;23.284;2022-09-09T10:36:57;12.13;;;8.07;;
15055;SDS011;7626;42.674;23.284;2022-09-09T10:39:29;9.30;;;8.30;;
15055;SDS011;7626;42.674;23.284;2022-09-09T10:42:01;12.75;;;8.63;;
15055;SDS011;7626;42.674;23.284;2022-09-09T10:44:37;9.52;;;8.38;;
15055;SDS011;7626;42.674;23.284;2022-09-09T10:47:16;10.63;;;8.38;;
15055;SDS011;7626;42.674;23.284;2022-09-09T10:49:52;9.90;;;8.55;;
15055;SDS011;7626;42.674;23.284;2022-09-09T10:52:22;11.20;;;8.35;;
15055;SDS011;7626;42.674;23.284;2022-09-09T10:54:55;12.73;;;8.68;;
15055;SDS011;7626;42.674;23.284;2022-09-09T10:57:27;11.02;;;9.02;;
15055;SDS011;7626;42.674;23.284;2022-09-09T10:59:57;13.43;;;8.93;;
15055;SDS011;7626;42.674;23.284;2022-09-09T11:02:26;10.52;;;8.90;;
15055;SDS011;7626;42.674;23.284;2022-09-09T11:04:53;10.20;;;8.93;;
15055;SDS011;7626;42.674;23.284;2022-09-09T11:07:24;14.32;;;9.63;;
15055;SDS011;7626;42.674;23.284;2022-09-09T11:09:52;11.40;;;9.50;;
15055;SDS011;7626;42.674;23.284;2022-09-09T11:12:21;10.60;;;9.02;;
15055;SDS011;7626;42.674;23.284;2022-09-09T11:14:51;10.00;;;9.07;;
15055;SDS011;7626;42.674;23.284;2022-09-09T11:17:20;12.20;;;9.63;;
15055;SDS011;7626;42.674;23.284;2022-09-09T11:19:48;10.88;;;9.18;;
15055;SDS011;7626;42.674;23.284;2022-09-09T11:22:16;9.73;;;8.73;;
15055;SDS011;7626;42.674;23.284;2022-09-09T11:24:44;12.80;;;9.57;;
15055;SDS011;7626;42.674;23.284;2022-09-09T11:27:13;12.05;;;8.93;;
15055;SDS011;7626;42.674;23.284;2022-09-09T11:32:34;13.82;;;9.98;;
15055;SDS011;7626;42.674;23.284;2022-09-09T11:35:10;11.98;;;8.90;;
15055;SDS011;7626;42.674;23.284;2022-09-09T11:40:27;14.30;;;10.75;;
15055;SDS011;7626;42.674;23.284;2022-09-09T11:43:02;10.73;;;9.18;;
15055;SDS011;7626;42.674;23.284;2022-09-09T11:45:30;12.20;;;9.82;;
15055;SDS011;7626;42.674;23.284;2022-09-09T11:47:58;10.93;;;9.10;;
15055;SDS011;7626;42.674;23.284;2022-09-09T11:50:32;15.05;;;10.15;;
15055;SDS011;7626;42.674;23.284;2022-09-09T11:53:04;10.45;;;9.38;;
15055;SDS011;7626;42.674;23.284;2022-09-09T11:55:31;10.18;;;9.20;;
15055;SDS011;7626;42.674;23.284;2022-09-09T11:57:58;12.18;;;9.65;;
15055;SDS011;7626;42.674;23.284;2022-09-09T12:00:32;11.95;;;9.10;;
15055;SDS011;7626;42.674;23.284;2022-09-09T12:03:01;11.55;;;10.32;;
15055;SDS011;7626;42.674;23.284;2022-09-09T12:05:35;12.50;;;9.45;;
15055;SDS011;7626;42.674;23.284;2022-09-09T12:08:03;10.65;;;9.38;;
15055;SDS011;7626;42.674;23.284;2022-09-09T12:10:34;13.13;;;9.60;;
15055;SDS011;7626;42.674;23.284;2022-09-09T12:13:14;15.13;;;9.52;;
15055;SDS011;7626;42.674;23.284;2022-09-09T12:15:46;13.18;;;9.95;;
15055;SDS011;7626;42.674;23.284;2022-09-09T12:18:16;10.48;;;9.35;;
15055;SDS011;7626;42.674;23.284;2022-09-09T12:20:51;13.43;;;9.95;;
15055;SDS011;7626;42.674;23.284;2022-09-09T12:23:27;13.52;;;10.02;;
15055;SDS011;7626;42.674;23.284;2022-09-09T12:26:06;10.93;;;9.38;;
15055;SDS011;7626;42.674;23.284;2022-09-09T12:28:42;10.15;;;9.00;;
15055;SDS011;7626;42.674;23.284;2022-09-09T12:31:12;14.20;;;10.15;;
15055;SDS011;7626;42.674;23.284;2022-09-09T12:33:44;12.18;;;9.70;;
15055;SDS011;7626;42.674;23.284;2022-09-09T12:36:12;11.32;;;9.90;;
15055;SDS011;7626;42.674;23.284;2022-09-09T12:38:40;12.50;;;9.70;;
15055;SDS011;7626;42.674;23.284;2022-09-09T12:41:15;10.30;;;9.30;;
15055;SDS011;7626;42.674;23.284;2022-09-09T12:43:44;9.57;;;8.07;;
15055;SDS011;7626;42.674;23.284;2022-09-09T12:46:24;8.32;;;7.13;;
15055;SDS011;7626;42.674;23.284;2022-09-09T12:48:56;9.32;;;7.80;;
15055;SDS011;7626;42.674;23.284;2022-09-09T12:51:24;12.20;;;7.95;;
15055;SDS011;7626;42.674;23.284;2022-09-09T12:53:51;10.15;;;7.45;;
15055;SDS011;7626;42.674;23.284;2022-09-09T12:56:18;11.38;;;7.60;;
15055;SDS011;7626;42.674;23.284;2022-09-09T12:58:46;11.40;;;7.70;;
15055;SDS011;7626;42.674;23.284;2022-09-09T13:01:18;10.32;;;9.23;;
15055;SDS011;7626;42.674;23.284;2022-09-09T13:03:46;11.77;;;9.52;;
15055;SDS011;7626;42.674;23.284;2022-09-09T13:06:18;9.48;;;8.18;;
15055;SDS011;7626;42.674;23.284;2022-09-09T13:08:47;8.80;;;6.55;;
15055;SDS011;7626;42.674;23.284;2022-09-09T13:11:15;10.07;;;7.63;;
15055;SDS011;7626;42.674;23.284;2022-09-09T13:13:42;10.75;;;7.40;;
15055;SDS011;7626;42.674;23.284;2022-09-09T13:16:18;12.15;;;6.95;;
15055;SDS011;7626;42.674;23.284;2022-09-09T13:18:45;7.35;;;6.65;;
15055;SDS011;7626;42.674;23.284;2022-09-09T13:21:12;8.63;;;7.30;;
15055;SDS011;7626;42.674;23.284;2022-09-09T13:23:41;9.68;;;7.15;;
15055;SDS011;7626;42.674;23.284;2022-09-09T13:26:19;10.32;;;8.52;;
15055;SDS011;7626;42.674;23.284;2022-09-09T13:28:47;13.43;;;9.88;;
15055;SDS011;7626;42.674;23.284;2022-09-09T13:31:19;10.85;;;9.52;;
15055;SDS011;7626;42.674;23.284;2022-09-09T13:33:46;12.60;;;10.02;;
15055;SDS011;7626;42.674;23.284;2022-09-09T13:36:12;10.32;;;9.32;;
15055;SDS011;7626;42.674;23.284;2022-09-09T13:38:53;13.05;;;8.82;;
15055;SDS011;7626;42.674;23.284;2022-09-09T13:41:19;11.57;;;9.43;;
15055;SDS011;7626;42.674;23.284;2022-09-09T13:43:49;11.63;;;9.25;;
15055;SDS011;7626;42.674;23.284;2022-09-09T13:46:24;14.20;;;9.18;;
15055;SDS011;7626;42.674;23.284;2022-09-09T13:48:54;11.43;;;9.27;;
15055;SDS011;7626;42.674;23.284;2022-09-09T13:51:26;11.02;;;8.80;;
15055;SDS011;7626;42.674;23.284;2022-09-09T13:53:55;13.25;;;9.43;;
15055;SDS011;7626;42.674;23.284;2022-09-09T13:56:22;13.00;;;8.80;;
15055;SDS011;7626;42.674;23.284;2022-09-09T13:58:49;13.15;;;9.35;;
15055;SDS011;7626;42.674;23.284;2022-09-09T14:01:15;11.60;;;8.80;;
15055;SDS011;7626;42.674;23.284;2022-09-09T14:03:42;14.95;;;9.70;;
15055;SDS011;7626;42.674;23.284;2022-09-09T14:06:09;14.07;;;9.50;;
15055;SDS011;7626;42.674;23.284;2022-09-09T14:08:36;10.18;;;8.90;;
15055;SDS011;7626;42.674;23.284;2022-09-09T14:11:05;16.90;;;9.90;;
15055;SDS011;7626;42.674;23.284;2022-09-09T14:13:31;12.27;;;9.30;;
15055;SDS011;7626;42.674;23.284;2022-09-09T14:15:58;12.60;;;10.00;;
15055;SDS011;7626;42.674;23.284;2022-09-09T14:18:24;9.93;;;8.93;;
15055;SDS011;7626;42.674;23.284;2022-09-09T14:20:51;10.23;;;8.60;;
15055;SDS011;7626;42.674;23.284;2022-09-09T14:23:18;9.50;;;8.02;;
15055;SDS011;7626;42.674;23.284;2022-09-09T14:25:47;9.15;;;8.02;;
15055;SDS011;7626;42.674;23.284;2022-09-09T14:28:15;10.10;;;8.57;;
15055;SDS011;7626;42.674;23.284;2022-09-09T14:30:42;13.23;;;8.95;;
15055;SDS011;7626;42.674;23.284;2022-09-09T14:33:10;9.80;;;8.80;;
15055;SDS011;7626;42.674;23.284;2022-09-09T14:35:37;10.45;;;9.48;;
15055;SDS011;7626;42.674;23.284;2022-09-09T14:38:03;11.20;;;9.43;;
15055;SDS011;7626;42.674;23.284;2022-09-09T14:40:30;11.10;;;8.95;;
15055;SDS011;7626;42.674;23.284;2022-09-09T14:42:57;11.95;;;9.63;;
15055;SDS011;7626;42.674;23.284;2022-09-09T14:45:24;12.05;;;9.82;;
15055;SDS011;7626;42.674;23.284;2022-09-09T14:47:51;12.55;;;10.10;;
15055;SDS011;7626;42.674;23.284;2022-09-09T14:50:18;12.32;;;10.35;;
15055;SDS011;7626;42.674;23.284;2022-09-09T14:52:44;11.40;;;9.90;;
15055;SDS011;7626;42.674;23.284;2022-09-09T14:55:11;12.73;;;11.32;;
15055;SDS011;7626;42.674;23.284;2022-09-09T14:57:38;10.73;;;9.63;;
15055;SDS011;7626;42.674;23.284;2022-09-09T15:00:05;37.80;;;12.07;;
15055;SDS011;7626;42.674;23.284;2022-09-09T15:02:34;18.08;;;10.55;;
15055;SDS011;7626;42.674;23.284;2022-09-09T15:05:00;13.48;;;10.40;;
15055;SDS011;7626;42.674;23.284;2022-09-09T15:07:27;14.68;;;10.40;;
15055;SDS011;7626;42.674;23.284;2022-09-09T15:09:53;12.43;;;9.80;;
15055;SDS011;7626;42.674;23.284;2022-09-09T15:12:20;11.13;;;10.13;;
15055;SDS011;7626;42.674;23.284;2022-09-09T15:14:47;13.05;;;11.32;;